sensor_id;sensor_type;location;lat;lon;timestamp;P1;durP1;ratioP1;P2;durP2;ratioP2
58597;SDS011;60319;46.908;16.848;2022-10-16T00:04:35;5.22;;;3.38;;
58597;SDS011;60319;46.908;16.848;2022-10-16T00:09:36;4.88;;;4.47;;
58597;SDS011;60319;46.908;16.848;2022-10-16T00:14:36;3.55;;;3.22;;
58597;SDS011;60319;46.908;16.848;2022-10-16T00:19:37;8.20;;;4.00;;
58597;SDS011;60319;46.908;16.848;2022-10-16T00:24:37;3.45;;;3.15;;
58597;SDS011;60319;46.908;16.848;2022-10-16T00:29:38;4.10;;;3.78;;
58597;SDS011;60319;46.908;16.848;2022-10-16T00:34:38;5.50;;;3.08;;
58597;SDS011;60319;46.908;16.848;2022-10-16T00:39:39;4.47;;;3.45;;
58597;SDS011;60319;46.908;16.848;2022-10-16T00:44:53;3.50;;;2.90;;
58597;SDS011;60319;46.908;16.848;2022-10-16T00:55:09;8.63;;;2.60;;
58597;SDS011;60319;46.908;16.848;2022-10-16T01:00:12;2.10;;;1.92;;
58597;SDS011;60319;46.908;16.848;2022-10-16T01:05:15;7.78;;;3.63;;
58597;SDS011;60319;46.908;16.848;2022-10-16T01:10:34;4.95;;;3.65;;
58597;SDS011;60319;46.908;16.848;2022-10-16T01:15:51;4.25;;;2.92;;
58597;SDS011;60319;46.908;16.848;2022-10-16T01:21:10;4.57;;;4.18;;
58597;SDS011;60319;46.908;16.848;2022-10-16T01:31:59;4.38;;;2.83;;
58597;SDS011;60319;46.908;16.848;2022-10-16T01:37:05;3.17;;;2.88;;
58597;SDS011;60319;46.908;16.848;2022-10-16T01:42:13;2.75;;;2.55;;
58597;SDS011;60319;46.908;16.848;2022-10-16T01:47:19;2.58;;;2.08;;
58597;SDS011;60319;46.908;16.848;2022-10-16T01:52:24;4.32;;;3.90;;
58597;SDS011;60319;46.908;16.848;2022-10-16T01:57:27;2.60;;;2.40;;
58597;SDS011;60319;46.908;16.848;2022-10-16T02:02:31;4.10;;;3.80;;
58597;SDS011;60319;46.908;16.848;2022-10-16T02:07:32;5.80;;;2.83;;
58597;SDS011;60319;46.908;16.848;2022-10-16T02:12:33;6.10;;;4.07;;
58597;SDS011;60319;46.908;16.848;2022-10-16T02:17:39;6.22;;;3.17;;
58597;SDS011;60319;46.908;16.848;2022-10-16T02:22:46;4.07;;;3.67;;
58597;SDS011;60319;46.908;16.848;2022-10-16T02:33:03;3.80;;;3.40;;
58597;SDS011;60319;46.908;16.848;2022-10-16T02:38:07;3.28;;;3.00;;
58597;SDS011;60319;46.908;16.848;2022-10-16T02:43:08;3.38;;;3.17;;
58597;SDS011;60319;46.908;16.848;2022-10-16T02:48:10;3.80;;;3.17;;
58597;SDS011;60319;46.908;16.848;2022-10-16T02:53:10;3.05;;;2.60;;
58597;SDS011;60319;46.908;16.848;2022-10-16T02:58:11;3.88;;;2.90;;
58597;SDS011;60319;46.908;16.848;2022-10-16T03:03:11;6.85;;;3.20;;
58597;SDS011;60319;46.908;16.848;2022-10-16T03:08:12;3.20;;;2.92;;
58597;SDS011;60319;46.908;16.848;2022-10-16T03:13:13;5.90;;;3.60;;
58597;SDS011;60319;46.908;16.848;2022-10-16T03:18:14;3.85;;;3.13;;
58597;SDS011;60319;46.908;16.848;2022-10-16T03:23:14;3.83;;;3.28;;
58597;SDS011;60319;46.908;16.848;2022-10-16T03:28:15;4.30;;;3.20;;
58597;SDS011;60319;46.908;16.848;2022-10-16T03:33:15;4.78;;;3.60;;
58597;SDS011;60319;46.908;16.848;2022-10-16T03:38:16;4.32;;;3.75;;
58597;SDS011;60319;46.908;16.848;2022-10-16T03:43:16;3.58;;;2.72;;
58597;SDS011;60319;46.908;16.848;2022-10-16T03:48:17;2.10;;;1.90;;
58597;SDS011;60319;46.908;16.848;2022-10-16T03:53:21;5.32;;;3.83;;
58597;SDS011;60319;46.908;16.848;2022-10-16T03:58:21;3.90;;;3.22;;
58597;SDS011;60319;46.908;16.848;2022-10-16T04:03:22;5.18;;;3.08;;
58597;SDS011;60319;46.908;16.848;2022-10-16T04:08:23;3.45;;;3.15;;
58597;SDS011;60319;46.908;16.848;2022-10-16T04:13:23;4.35;;;3.78;;
58597;SDS011;60319;46.908;16.848;2022-10-16T04:18:23;2.97;;;2.63;;
58597;SDS011;60319;46.908;16.848;2022-10-16T04:23:27;3.75;;;3.40;;
58597;SDS011;60319;46.908;16.848;2022-10-16T04:28:27;4.35;;;3.95;;
58597;SDS011;60319;46.908;16.848;2022-10-16T04:33:28;6.07;;;3.53;;
58597;SDS011;60319;46.908;16.848;2022-10-16T04:38:29;3.95;;;3.45;;
58597;SDS011;60319;46.908;16.848;2022-10-16T04:43:29;2.67;;;2.40;;
58597;SDS011;60319;46.908;16.848;2022-10-16T04:48:30;5.82;;;3.42;;
58597;SDS011;60319;46.908;16.848;2022-10-16T04:53:31;2.53;;;2.38;;
58597;SDS011;60319;46.908;16.848;2022-10-16T04:58:32;3.15;;;2.95;;
58597;SDS011;60319;46.908;16.848;2022-10-16T05:03:33;4.88;;;3.10;;
58597;SDS011;60319;46.908;16.848;2022-10-16T05:08:34;2.47;;;2.22;;
58597;SDS011;60319;46.908;16.848;2022-10-16T05:13:34;3.20;;;2.90;;
58597;SDS011;60319;46.908;16.848;2022-10-16T05:18:34;3.47;;;2.72;;
58597;SDS011;60319;46.908;16.848;2022-10-16T05:23:35;3.03;;;2.72;;
58597;SDS011;60319;46.908;16.848;2022-10-16T05:28:35;4.68;;;2.70;;
58597;SDS011;60319;46.908;16.848;2022-10-16T05:33:36;2.88;;;2.67;;
58597;SDS011;60319;46.908;16.848;2022-10-16T05:38:37;3.53;;;3.22;;
58597;SDS011;60319;46.908;16.848;2022-10-16T05:43:37;2.67;;;2.20;;
58597;SDS011;60319;46.908;16.848;2022-10-16T05:48:38;2.88;;;2.55;;
58597;SDS011;60319;46.908;16.848;2022-10-16T05:53:39;5.22;;;2.70;;
58597;SDS011;60319;46.908;16.848;2022-10-16T05:58:40;2.65;;;2.45;;
58597;SDS011;60319;46.908;16.848;2022-10-16T06:03:41;2.03;;;1.92;;
58597;SDS011;60319;46.908;16.848;2022-10-16T06:08:43;1.88;;;1.77;;
58597;SDS011;60319;46.908;16.848;2022-10-16T06:13:48;3.22;;;2.92;;
58597;SDS011;60319;46.908;16.848;2022-10-16T06:18:53;3.17;;;2.90;;
58597;SDS011;60319;46.908;16.848;2022-10-16T06:23:56;2.38;;;1.95;;
58597;SDS011;60319;46.908;16.848;2022-10-16T06:28:58;2.00;;;1.80;;
58597;SDS011;60319;46.908;16.848;2022-10-16T06:33:59;3.08;;;2.08;;
58597;SDS011;60319;46.908;16.848;2022-10-16T06:39:00;2.08;;;1.50;;
58597;SDS011;60319;46.908;16.848;2022-10-16T06:44:01;3.50;;;2.38;;
58597;SDS011;60319;46.908;16.848;2022-10-16T06:49:05;3.95;;;2.10;;
58597;SDS011;60319;46.908;16.848;2022-10-16T06:54:05;1.77;;;1.67;;
58597;SDS011;60319;46.908;16.848;2022-10-16T06:59:05;3.15;;;2.13;;
58597;SDS011;60319;46.908;16.848;2022-10-16T07:04:06;1.55;;;1.45;;
58597;SDS011;60319;46.908;16.848;2022-10-16T07:09:07;2.55;;;2.00;;
58597;SDS011;60319;46.908;16.848;2022-10-16T07:14:14;1.58;;;1.35;;
58597;SDS011;60319;46.908;16.848;2022-10-16T07:19:18;1.90;;;1.80;;
58597;SDS011;60319;46.908;16.848;2022-10-16T07:24:19;2.42;;;1.70;;
58597;SDS011;60319;46.908;16.848;2022-10-16T07:29:20;1.88;;;1.77;;
58597;SDS011;60319;46.908;16.848;2022-10-16T07:34:21;2.78;;;2.58;;
58597;SDS011;60319;46.908;16.848;2022-10-16T07:39:22;1.88;;;1.75;;
58597;SDS011;60319;46.908;16.848;2022-10-16T07:44:23;2.95;;;2.72;;
58597;SDS011;60319;46.908;16.848;2022-10-16T07:49:23;4.72;;;2.97;;
58597;SDS011;60319;46.908;16.848;2022-10-16T07:54:27;5.43;;;2.72;;
58597;SDS011;60319;46.908;16.848;2022-10-16T07:59:27;2.80;;;2.60;;
58597;SDS011;60319;46.908;16.848;2022-10-16T08:04:27;2.92;;;2.50;;
58597;SDS011;60319;46.908;16.848;2022-10-16T08:09:28;2.47;;;2.28;;
58597;SDS011;60319;46.908;16.848;2022-10-16T08:14:29;2.85;;;2.65;;
58597;SDS011;60319;46.908;16.848;2022-10-16T08:19:29;1.42;;;1.33;;
58597;SDS011;60319;46.908;16.848;2022-10-16T08:24:31;3.67;;;2.42;;
58597;SDS011;60319;46.908;16.848;2022-10-16T08:29:32;2.60;;;2.40;;
58597;SDS011;60319;46.908;16.848;2022-10-16T08:34:33;3.00;;;2.60;;
58597;SDS011;60319;46.908;16.848;2022-10-16T08:39:33;2.88;;;2.60;;
58597;SDS011;60319;46.908;16.848;2022-10-16T08:49:36;3.03;;;2.78;;
58597;SDS011;60319;46.908;16.848;2022-10-16T08:54:41;3.42;;;3.13;;
58597;SDS011;60319;46.908;16.848;2022-10-16T08:59:45;3.30;;;3.00;;
58597;SDS011;60319;46.908;16.848;2022-10-16T09:11:20;5.38;;;4.95;;
58597;SDS011;60319;46.908;16.848;2022-10-16T09:16:12;4.95;;;3.65;;
58597;SDS011;60319;46.908;16.848;2022-10-16T09:21:20;6.65;;;4.07;;
58597;SDS011;60319;46.908;16.848;2022-10-16T09:26:24;5.28;;;3.75;;
58597;SDS011;60319;46.908;16.848;2022-10-16T09:31:25;5.32;;;4.15;;
58597;SDS011;60319;46.908;16.848;2022-10-16T09:36:26;5.28;;;4.28;;
58597;SDS011;60319;46.908;16.848;2022-10-16T09:41:28;4.18;;;3.80;;
58597;SDS011;60319;46.908;16.848;2022-10-16T09:51:36;4.88;;;3.53;;
58597;SDS011;60319;46.908;16.848;2022-10-16T09:56:38;4.43;;;3.78;;
58597;SDS011;60319;46.908;16.848;2022-10-16T10:06:45;4.03;;;3.72;;
58597;SDS011;60319;46.908;16.848;2022-10-16T10:11:49;5.70;;;3.65;;
58597;SDS011;60319;46.908;16.848;2022-10-16T10:17:01;7.88;;;4.53;;
58597;SDS011;60319;46.908;16.848;2022-10-16T10:22:24;4.10;;;3.70;;
58597;SDS011;60319;46.908;16.848;2022-10-16T10:27:35;11.02;;;4.82;;
58597;SDS011;60319;46.908;16.848;2022-10-16T10:32:58;7.88;;;5.53;;
58597;SDS011;60319;46.908;16.848;2022-10-16T10:54:01;3.58;;;3.28;;
58597;SDS011;60319;46.908;16.848;2022-10-16T11:04:44;2.90;;;2.35;;
58597;SDS011;60319;46.908;16.848;2022-10-16T11:10:17;5.50;;;4.10;;
58597;SDS011;60319;46.908;16.848;2022-10-16T11:20:44;5.15;;;3.75;;
58597;SDS011;60319;46.908;16.848;2022-10-16T11:25:52;5.00;;;4.03;;
58597;SDS011;60319;46.908;16.848;2022-10-16T11:31:02;6.75;;;4.78;;
58597;SDS011;60319;46.908;16.848;2022-10-16T11:36:06;5.37;;;4.87;;
58597;SDS011;60319;46.908;16.848;2022-10-16T11:41:20;8.70;;;4.78;;
58597;SDS011;60319;46.908;16.848;2022-10-16T11:46:26;5.10;;;4.65;;
58597;SDS011;60319;46.908;16.848;2022-10-16T11:51:40;9.45;;;4.82;;
58597;SDS011;60319;46.908;16.848;2022-10-16T11:56:48;5.43;;;4.57;;
58597;SDS011;60319;46.908;16.848;2022-10-16T12:07:12;5.65;;;5.07;;
58597;SDS011;60319;46.908;16.848;2022-10-16T12:17:47;6.25;;;5.07;;
58597;SDS011;60319;46.908;16.848;2022-10-16T12:27:59;6.45;;;5.10;;
58597;SDS011;60319;46.908;16.848;2022-10-16T12:33:22;3.50;;;3.13;;
58597;SDS011;60319;46.908;16.848;2022-10-16T12:38:47;4.43;;;3.60;;
58597;SDS011;60319;46.908;16.848;2022-10-16T12:43:52;6.93;;;4.70;;
58597;SDS011;60319;46.908;16.848;2022-10-16T12:54:16;5.43;;;4.22;;
58597;SDS011;60319;46.908;16.848;2022-10-16T13:31:17;4.97;;;4.38;;
58597;SDS011;60319;46.908;16.848;2022-10-16T13:36:22;7.63;;;5.32;;
58597;SDS011;60319;46.908;16.848;2022-10-16T13:41:24;5.68;;;4.55;;
58597;SDS011;60319;46.908;16.848;2022-10-16T13:46:25;8.00;;;4.43;;
58597;SDS011;60319;46.908;16.848;2022-10-16T13:51:26;5.38;;;4.82;;
58597;SDS011;60319;46.908;16.848;2022-10-16T13:56:29;5.15;;;4.75;;
58597;SDS011;60319;46.908;16.848;2022-10-16T14:01:32;4.63;;;4.00;;
58597;SDS011;60319;46.908;16.848;2022-10-16T14:06:36;6.20;;;4.93;;
58597;SDS011;60319;46.908;16.848;2022-10-16T14:11:48;5.50;;;4.32;;
58597;SDS011;60319;46.908;16.848;2022-10-16T14:16:51;6.80;;;4.80;;
58597;SDS011;60319;46.908;16.848;2022-10-16T14:21:52;3.53;;;3.05;;
58597;SDS011;60319;46.908;16.848;2022-10-16T14:26:53;5.93;;;5.38;;
58597;SDS011;60319;46.908;16.848;2022-10-16T14:31:57;4.28;;;3.88;;
58597;SDS011;60319;46.908;16.848;2022-10-16T14:37:07;7.28;;;4.40;;
58597;SDS011;60319;46.908;16.848;2022-10-16T14:42:29;4.97;;;4.15;;
58597;SDS011;60319;46.908;16.848;2022-10-16T14:47:30;3.35;;;3.05;;
58597;SDS011;60319;46.908;16.848;2022-10-16T14:52:31;2.92;;;2.72;;
58597;SDS011;60319;46.908;16.848;2022-10-16T14:57:32;3.03;;;2.78;;
58597;SDS011;60319;46.908;16.848;2022-10-16T15:02:35;3.17;;;2.97;;
58597;SDS011;60319;46.908;16.848;2022-10-16T15:07:39;3.08;;;2.78;;
58597;SDS011;60319;46.908;16.848;2022-10-16T15:12:39;4.47;;;2.33;;
58597;SDS011;60319;46.908;16.848;2022-10-16T15:17:40;2.10;;;1.92;;
58597;SDS011;60319;46.908;16.848;2022-10-16T15:22:40;4.43;;;1.83;;
58597;SDS011;60319;46.908;16.848;2022-10-16T15:27:41;2.13;;;1.98;;
58597;SDS011;60319;46.908;16.848;2022-10-16T15:32:41;1.90;;;1.80;;
58597;SDS011;60319;46.908;16.848;2022-10-16T15:37:41;1.60;;;1.50;;
58597;SDS011;60319;46.908;16.848;2022-10-16T15:42:42;4.03;;;1.98;;
58597;SDS011;60319;46.908;16.848;2022-10-16T15:47:43;2.00;;;1.90;;
58597;SDS011;60319;46.908;16.848;2022-10-16T15:52:43;3.78;;;2.70;;
58597;SDS011;60319;46.908;16.848;2022-10-16T15:57:44;1.33;;;1.20;;
58597;SDS011;60319;46.908;16.848;2022-10-16T16:02:49;2.25;;;2.08;;
58597;SDS011;60319;46.908;16.848;2022-10-16T16:07:51;3.42;;;2.28;;
58597;SDS011;60319;46.908;16.848;2022-10-16T16:12:55;4.15;;;2.00;;
58597;SDS011;60319;46.908;16.848;2022-10-16T16:17:55;3.90;;;2.97;;
58597;SDS011;60319;46.908;16.848;2022-10-16T16:22:56;1.83;;;1.35;;
58597;SDS011;60319;46.908;16.848;2022-10-16T16:27:56;2.80;;;2.35;;
58597;SDS011;60319;46.908;16.848;2022-10-16T16:32:56;2.42;;;2.22;;
58597;SDS011;60319;46.908;16.848;2022-10-16T16:37:57;5.03;;;2.75;;
58597;SDS011;60319;46.908;16.848;2022-10-16T16:42:57;4.00;;;3.13;;
58597;SDS011;60319;46.908;16.848;2022-10-16T16:47:58;5.20;;;3.42;;
58597;SDS011;60319;46.908;16.848;2022-10-16T16:52:58;2.15;;;2.05;;
58597;SDS011;60319;46.908;16.848;2022-10-16T16:57:59;2.67;;;2.42;;
58597;SDS011;60319;46.908;16.848;2022-10-16T17:03:00;4.22;;;3.92;;
58597;SDS011;60319;46.908;16.848;2022-10-16T17:08:00;4.25;;;2.95;;
58597;SDS011;60319;46.908;16.848;2022-10-16T17:13:00;3.28;;;2.97;;
58597;SDS011;60319;46.908;16.848;2022-10-16T17:18:04;4.32;;;3.90;;
58597;SDS011;60319;46.908;16.848;2022-10-16T17:23:04;3.97;;;3.55;;
58597;SDS011;60319;46.908;16.848;2022-10-16T17:28:05;4.57;;;4.18;;
58597;SDS011;60319;46.908;16.848;2022-10-16T17:33:07;3.50;;;3.20;;
58597;SDS011;60319;46.908;16.848;2022-10-16T17:38:08;3.88;;;3.60;;
58597;SDS011;60319;46.908;16.848;2022-10-16T17:43:09;6.47;;;2.60;;
58597;SDS011;60319;46.908;16.848;2022-10-16T17:48:10;3.53;;;3.25;;
58597;SDS011;60319;46.908;16.848;2022-10-16T17:53:10;7.00;;;5.05;;
58597;SDS011;60319;46.908;16.848;2022-10-16T17:58:11;5.05;;;4.25;;
58597;SDS011;60319;46.908;16.848;2022-10-16T18:03:11;4.30;;;3.90;;
58597;SDS011;60319;46.908;16.848;2022-10-16T18:08:12;5.07;;;4.22;;
58597;SDS011;60319;46.908;16.848;2022-10-16T18:13:12;4.47;;;3.30;;
58597;SDS011;60319;46.908;16.848;2022-10-16T18:18:13;5.97;;;5.32;;
58597;SDS011;60319;46.908;16.848;2022-10-16T18:23:14;5.13;;;4.72;;
58597;SDS011;60319;46.908;16.848;2022-10-16T18:28:14;5.82;;;3.70;;
58597;SDS011;60319;46.908;16.848;2022-10-16T18:33:14;4.60;;;3.70;;
58597;SDS011;60319;46.908;16.848;2022-10-16T18:38:15;4.82;;;4.40;;
58597;SDS011;60319;46.908;16.848;2022-10-16T18:43:15;4.70;;;3.60;;
58597;SDS011;60319;46.908;16.848;2022-10-16T18:48:17;5.57;;;4.13;;
58597;SDS011;60319;46.908;16.848;2022-10-16T18:53:18;6.72;;;4.75;;
58597;SDS011;60319;46.908;16.848;2022-10-16T18:58:19;5.72;;;4.57;;
58597;SDS011;60319;46.908;16.848;2022-10-16T19:03:19;7.85;;;5.90;;
58597;SDS011;60319;46.908;16.848;2022-10-16T19:08:20;7.50;;;6.40;;
58597;SDS011;60319;46.908;16.848;2022-10-16T19:13:20;12.93;;;9.00;;
58597;SDS011;60319;46.908;16.848;2022-10-16T19:18:24;6.57;;;5.03;;
58597;SDS011;60319;46.908;16.848;2022-10-16T19:23:25;8.32;;;6.07;;
58597;SDS011;60319;46.908;16.848;2022-10-16T19:28:26;9.93;;;6.85;;
58597;SDS011;60319;46.908;16.848;2022-10-16T19:33:27;6.65;;;6.03;;
58597;SDS011;60319;46.908;16.848;2022-10-16T19:38:27;14.00;;;6.53;;
58597;SDS011;60319;46.908;16.848;2022-10-16T19:43:28;8.07;;;5.65;;
58597;SDS011;60319;46.908;16.848;2022-10-16T19:48:28;5.05;;;4.57;;
58597;SDS011;60319;46.908;16.848;2022-10-16T19:53:29;5.70;;;4.35;;
58597;SDS011;60319;46.908;16.848;2022-10-16T19:58:30;8.38;;;4.85;;
58597;SDS011;60319;46.908;16.848;2022-10-16T20:03:30;4.47;;;4.07;;
58597;SDS011;60319;46.908;16.848;2022-10-16T20:08:32;4.35;;;3.92;;
58597;SDS011;60319;46.908;16.848;2022-10-16T20:13:33;4.47;;;3.50;;
58597;SDS011;60319;46.908;16.848;2022-10-16T20:18:34;6.15;;;4.53;;
58597;SDS011;60319;46.908;16.848;2022-10-16T20:23:34;6.65;;;5.47;;
58597;SDS011;60319;46.908;16.848;2022-10-16T20:28:34;9.70;;;6.32;;
58597;SDS011;60319;46.908;16.848;2022-10-16T20:33:35;5.07;;;3.88;;
58597;SDS011;60319;46.908;16.848;2022-10-16T20:38:35;5.68;;;3.95;;
58597;SDS011;60319;46.908;16.848;2022-10-16T20:43:39;6.32;;;4.22;;
58597;SDS011;60319;46.908;16.848;2022-10-16T20:48:42;5.18;;;4.25;;
58597;SDS011;60319;46.908;16.848;2022-10-16T20:53:44;6.43;;;4.85;;
58597;SDS011;60319;46.908;16.848;2022-10-16T20:58:45;7.30;;;4.72;;
58597;SDS011;60319;46.908;16.848;2022-10-16T21:03:50;5.93;;;5.15;;
58597;SDS011;60319;46.908;16.848;2022-10-16T21:08:52;4.38;;;3.50;;
58597;SDS011;60319;46.908;16.848;2022-10-16T21:13:53;6.55;;;5.65;;
58597;SDS011;60319;46.908;16.848;2022-10-16T21:18:56;5.43;;;4.65;;
58597;SDS011;60319;46.908;16.848;2022-10-16T21:23:57;5.68;;;4.82;;
58597;SDS011;60319;46.908;16.848;2022-10-16T21:29:03;4.63;;;3.42;;
58597;SDS011;60319;46.908;16.848;2022-10-16T21:34:05;7.22;;;4.30;;
58597;SDS011;60319;46.908;16.848;2022-10-16T21:39:10;4.03;;;3.67;;
58597;SDS011;60319;46.908;16.848;2022-10-16T21:44:13;4.57;;;3.95;;
58597;SDS011;60319;46.908;16.848;2022-10-16T21:49:15;6.32;;;3.13;;
58597;SDS011;60319;46.908;16.848;2022-10-16T21:54:19;3.83;;;3.50;;
58597;SDS011;60319;46.908;16.848;2022-10-16T21:59:21;3.67;;;2.78;;
58597;SDS011;60319;46.908;16.848;2022-10-16T22:04:21;4.28;;;3.88;;
58597;SDS011;60319;46.908;16.848;2022-10-16T22:09:22;4.18;;;3.67;;
58597;SDS011;60319;46.908;16.848;2022-10-16T22:14:22;4.95;;;4.10;;
58597;SDS011;60319;46.908;16.848;2022-10-16T22:19:23;4.63;;;4.00;;
58597;SDS011;60319;46.908;16.848;2022-10-16T22:24:23;3.83;;;3.55;;
58597;SDS011;60319;46.908;16.848;2022-10-16T22:29:24;5.88;;;3.25;;
58597;SDS011;60319;46.908;16.848;2022-10-16T22:34:24;5.10;;;3.38;;
58597;SDS011;60319;46.908;16.848;2022-10-16T22:39:27;4.68;;;3.63;;
58597;SDS011;60319;46.908;16.848;2022-10-16T22:44:27;4.85;;;4.35;;
58597;SDS011;60319;46.908;16.848;2022-10-16T22:49:28;4.43;;;4.03;;
58597;SDS011;60319;46.908;16.848;2022-10-16T22:54:29;6.30;;;4.00;;
58597;SDS011;60319;46.908;16.848;2022-10-16T22:59:29;4.82;;;4.18;;
58597;SDS011;60319;46.908;16.848;2022-10-16T23:04:30;3.92;;;3.55;;
58597;SDS011;60319;46.908;16.848;2022-10-16T23:09:31;4.95;;;4.40;;
58597;SDS011;60319;46.908;16.848;2022-10-16T23:14:31;6.65;;;4.15;;
58597;SDS011;60319;46.908;16.848;2022-10-16T23:19:32;5.05;;;4.28;;
58597;SDS011;60319;46.908;16.848;2022-10-16T23:24:32;6.22;;;4.00;;
58597;SDS011;60319;46.908;16.848;2022-10-16T23:29:33;4.30;;;3.40;;
58597;SDS011;60319;46.908;16.848;2022-10-16T23:34:33;19.25;;;2.88;;
58597;SDS011;60319;46.908;16.848;2022-10-16T23:39:34;4.53;;;2.60;;
58597;SDS011;60319;46.908;16.848;2022-10-16T23:44:34;4.65;;;3.53;;
58597;SDS011;60319;46.908;16.848;2022-10-16T23:49:35;5.72;;;3.85;;
58597;SDS011;60319;46.908;16.848;2022-10-16T23:54:35;4.28;;;2.55;;
58597;SDS011;60319;46.908;16.848;2022-10-16T23:59:35;7.78;;;3.42;;
